createdAt,value
2023-04-04T00:01:44.313Z,101250.02
2023-04-04T00:06:47.791Z,101246.05
2023-04-04T00:11:49.858Z,101247.95
2023-04-04T00:16:51.615Z,101248.92
2023-04-04T00:21:53.147Z,101241.71
2023-04-04T00:26:55.471Z,101237.01
2023-04-04T00:31:58.122Z,101235.80
2023-04-04T00:36:59.895Z,101230.29
2023-04-04T00:42:02.049Z,101223.79
2023-04-04T00:47:04.667Z,101215.70
2023-04-04T00:52:07.820Z,101213.94
2023-04-04T00:57:09.674Z,101212.27
2023-04-04T01:02:11.515Z,101214.91
2023-04-04T01:07:13.692Z,101203.17
2023-04-04T01:12:15.631Z,101197.91
2023-04-04T01:17:17.342Z,101194.07
2023-04-04T01:22:20.411Z,101189.73
2023-04-04T01:27:22.647Z,101189.94
2023-04-04T01:32:46.277Z,101190.31
2023-04-04T01:38:06.519Z,101193.77
2023-04-04T01:43:08.726Z,101197.38
2023-04-04T01:48:11.181Z,101198.77
2023-04-04T01:53:13.023Z,101197.54
2023-04-04T01:58:14.542Z,101204.25
2023-04-04T02:03:16.058Z,101201.52
2023-04-04T02:08:17.993Z,101201.20
2023-04-04T02:13:20.048Z,101194.28
2023-04-04T02:18:21.547Z,101193.69
2023-04-04T02:23:23.029Z,101197.05
2023-04-04T02:28:24.564Z,101200.34
2023-04-04T02:33:26.014Z,101199.81
2023-04-04T02:38:28.729Z,101201.45
2023-04-04T02:43:30.398Z,101201.36
2023-04-04T02:48:32.120Z,101205.19
2023-04-04T02:53:33.632Z,101206.84
2023-04-04T02:58:35.173Z,101209.80
2023-04-04T03:03:37.322Z,101215.94
2023-04-04T03:08:39.167Z,101215.55
2023-04-04T03:13:40.784Z,101216.58
2023-04-04T03:18:42.467Z,101219.17
2023-04-04T03:23:44.018Z,101216.01
2023-04-04T03:28:45.542Z,101212.64
2023-04-04T03:33:47.373Z,101205.86
2023-04-04T03:38:49.106Z,101200.16
2023-04-04T03:43:50.946Z,101197.47
2023-04-04T03:48:52.432Z,101201.69
2023-04-04T03:53:54.114Z,101202.11
2023-04-04T03:58:56.531Z,101203.77
2023-04-04T04:03:58.223Z,101199.90
2023-04-04T04:08:59.904Z,101200.91
2023-04-04T04:14:01.453Z,101198.36
2023-04-04T04:19:03.542Z,101198.14
2023-04-04T04:24:06.013Z,101202.88
2023-04-04T04:29:08.089Z,101202.85
2023-04-04T04:34:09.716Z,101197.60
2023-04-04T04:39:11.229Z,101194.27
2023-04-04T04:44:13.442Z,101190.02
2023-04-04T04:49:15.584Z,101189.38
2023-04-04T04:54:17.185Z,101187.73
2023-04-04T04:59:18.683Z,101183.04
2023-04-04T05:04:20.334Z,101181.50
2023-04-04T05:09:21.841Z,101187.40
2023-04-04T05:14:23.669Z,101187.36
2023-04-04T05:19:25.222Z,101187.08
2023-04-04T05:24:27.624Z,101184.64
2023-04-04T05:29:29.181Z,101185.55
2023-04-04T05:34:31.569Z,101189.05
2023-04-04T05:39:33.095Z,101189.67
2023-04-04T05:44:34.879Z,101190.40
2023-04-04T05:49:36.416Z,101201.23
2023-04-04T05:54:37.928Z,101199.04
2023-04-04T05:59:39.518Z,101200.67
2023-04-04T06:04:41.152Z,101203.33
2023-04-04T06:09:43.834Z,101203.42
2023-04-04T06:14:45.472Z,101198.09
2023-04-04T06:19:46.989Z,101189.09
2023-04-04T06:24:48.481Z,101183.08
2023-04-04T06:29:50.253Z,101184.94
2023-04-04T06:34:51.744Z,101186.13
2023-04-04T06:39:53.798Z,101178.36
2023-04-04T06:44:55.537Z,101177.62
2023-04-04T06:49:57.340Z,101174.73
2023-04-04T06:54:58.882Z,101170.49
2023-04-04T07:00:00.838Z,101169.05
2023-04-04T07:05:04.406Z,101158.27
2023-04-04T07:10:07.042Z,101154.58
2023-04-04T07:15:09.242Z,101146.49
2023-04-04T07:20:11.455Z,101147.75
2023-04-04T07:25:13.571Z,101146.24
2023-04-04T07:30:21.978Z,101151.15
2023-04-04T07:35:24.097Z,101145.33
2023-04-04T07:40:25.679Z,101144.59
2023-04-04T07:45:27.215Z,101143.48
2023-04-04T07:50:28.693Z,101144.69
2023-04-04T07:55:30.524Z,101140.45
2023-04-04T08:00:32.035Z,101140.90
2023-04-04T08:05:33.630Z,101133.68
2023-04-04T08:10:35.147Z,101136.54
2023-04-04T08:15:36.736Z,101125.25
2023-04-04T08:20:38.622Z,101121.13
2023-04-04T08:25:40.683Z,101125.33
2023-04-04T08:30:43.516Z,101120.02
2023-04-04T08:35:45.057Z,101123.09
2023-04-04T08:40:50.143Z,101117.59
2023-04-04T08:45:54.106Z,101116.64
2023-04-04T08:50:59.666Z,101109.81
2023-04-04T08:56:01.179Z,101105.05
2023-04-04T09:01:02.963Z,101101.12
2023-04-04T09:06:05.454Z,101102.60
2023-04-04T09:11:07.832Z,101101.56
2023-04-04T09:16:09.390Z,101096.68
2023-04-04T09:21:12.316Z,101097.91
2023-04-04T09:26:13.883Z,101097.83
2023-04-04T09:31:17.320Z,101094.09
2023-04-04T09:36:18.954Z,101089.69
2023-04-04T09:41:21.419Z,101089.34
2023-04-04T09:46:23.417Z,101096.09
2023-04-04T09:51:24.940Z,101095.91
2023-04-04T09:56:27.855Z,101097.27
2023-04-04T10:01:29.789Z,101091.52
2023-04-04T10:06:31.792Z,101091.91
2023-04-04T10:11:36.185Z,101097.06
2023-04-04T10:16:38.690Z,101096.78
2023-04-04T10:21:41.394Z,101106.87
2023-04-04T10:26:42.980Z,101105.08
2023-04-04T10:31:47.623Z,101102.73
2023-04-04T10:36:50.750Z,101100.16
2023-04-04T10:41:53.314Z,101096.91
2023-04-04T10:46:58.623Z,101084.59
2023-04-04T10:52:01.458Z,101075.98
2023-04-04T10:57:03.969Z,101074.16
2023-04-04T11:02:06.937Z,101079.58
2023-04-04T11:07:18.220Z,101077.86
2023-04-04T11:12:42.566Z,101076.00
2023-04-04T11:17:50.288Z,101070.48
2023-04-04T11:23:06.046Z,101063.48
2023-04-04T11:28:25.149Z,101063.44
2023-04-04T11:33:27.887Z,101069.21
2023-04-04T11:38:29.837Z,101062.05
2023-04-04T11:43:33.696Z,101062.07
2023-04-04T11:48:36.431Z,101060.48
2023-04-04T11:53:38.430Z,101059.88
2023-04-04T11:58:40.340Z,101059.28
2023-04-04T12:03:42.079Z,101049.08
2023-04-04T12:08:44.242Z,101051.84
2023-04-04T12:13:45.865Z,101052.09
2023-04-04T12:18:47.439Z,101043.41
2023-04-04T12:23:49.418Z,101046.20
2023-04-04T12:28:53.371Z,101044.68
2023-04-04T12:33:55.076Z,101044.98
2023-04-04T12:39:08.350Z,101050.00
2023-04-04T12:44:09.834Z,101045.08
2023-04-04T12:49:11.879Z,101047.05
2023-04-04T12:54:26.979Z,101053.79
2023-04-04T12:59:34.155Z,101054.46
2023-04-04T13:04:36.070Z,101053.48
2023-04-04T13:09:52.666Z,101044.02
2023-04-04T13:14:59.517Z,101039.13
2023-04-04T13:20:01.404Z,101040.73
2023-04-04T13:25:04.133Z,101043.20
2023-04-04T13:30:09.194Z,101057.56
2023-04-04T13:35:13.459Z,101062.61
2023-04-04T13:40:15.453Z,101065.11
2023-04-04T13:45:16.989Z,101066.31
2023-04-04T13:50:18.517Z,101054.30
2023-04-04T13:55:21.801Z,101049.45
2023-04-04T14:00:26.721Z,101053.30
2023-04-04T14:05:28.317Z,101045.66
2023-04-04T14:10:29.850Z,101045.17
2023-04-04T14:15:31.446Z,101037.82
2023-04-04T14:20:33.997Z,101031.24
2023-04-04T14:25:36.592Z,101028.59
2023-04-04T14:30:38.776Z,101022.13
2023-04-04T14:35:40.637Z,101022.49
2023-04-04T14:40:42.973Z,101017.77
2023-04-04T14:45:44.435Z,101021.97
2023-04-04T14:50:46.877Z,101028.22
2023-04-04T14:55:48.385Z,101016.30
2023-04-04T15:00:50.438Z,101012.49
2023-04-04T15:05:52.170Z,101016.34
2023-04-04T15:10:54.957Z,101022.38
2023-04-04T15:15:56.744Z,101027.86
2023-04-04T15:20:58.822Z,101019.88
2023-04-04T15:26:00.553Z,101015.64
2023-04-04T15:31:03.110Z,101006.34
2023-04-04T15:36:05.462Z,101008.29
2023-04-04T15:41:10.309Z,101012.46
2023-04-04T15:46:11.828Z,101012.69
2023-04-04T15:51:13.539Z,101008.33
2023-04-04T15:56:17.465Z,101005.30
2023-04-04T16:01:19.193Z,101005.00
2023-04-04T16:06:21.232Z,101004.45
2023-04-04T16:11:22.899Z,101017.84
2023-04-04T16:16:24.434Z,101015.10
2023-04-04T16:21:26.676Z,101011.19
2023-04-04T16:26:28.301Z,101010.02
2023-04-04T16:31:31.251Z,101011.84
2023-04-04T16:36:32.861Z,101006.67
2023-04-04T16:41:34.779Z,101003.20
2023-04-04T16:46:36.652Z,101004.86
2023-04-04T16:51:38.393Z,101020.14
2023-04-04T16:56:39.968Z,101016.61
2023-04-04T17:01:41.490Z,101015.54
2023-04-04T17:06:43.145Z,101014.88
2023-04-04T17:11:47.059Z,101014.52
2023-04-04T17:16:48.831Z,101015.71
2023-04-04T17:21:50.644Z,101016.95
2023-04-04T17:26:52.782Z,101020.67
2023-04-04T17:31:56.622Z,101018.30
2023-04-04T17:36:58.324Z,101022.49
2023-04-04T17:41:59.974Z,101029.79
2023-04-04T17:47:01.481Z,101038.34
2023-04-04T17:52:04.349Z,101037.92
2023-04-04T17:57:07.240Z,101039.73
2023-04-04T18:02:08.803Z,101038.33
2023-04-04T18:07:11.170Z,101039.80
2023-04-04T18:12:12.916Z,101046.48
2023-04-04T18:17:14.434Z,101050.96
2023-04-04T18:22:15.925Z,101051.95
2023-04-04T18:27:17.489Z,101056.80
2023-04-04T18:32:21.544Z,101059.86
2023-04-04T18:37:23.185Z,101060.89
2023-04-04T18:42:26.088Z,101060.65
2023-04-04T18:47:27.820Z,101061.48
2023-04-04T18:52:29.351Z,101059.88
2023-04-04T18:57:31.520Z,101059.00
2023-04-04T19:02:34.269Z,101057.89
2023-04-04T19:07:36.295Z,101052.36
2023-04-04T19:12:37.844Z,101048.77
2023-04-04T19:17:40.093Z,101048.67
2023-04-04T19:22:41.931Z,101044.81
2023-04-04T19:27:43.462Z,101048.59
2023-04-04T19:32:44.982Z,101052.15
2023-04-04T19:37:46.804Z,101060.13
2023-04-04T19:42:48.372Z,101057.02
2023-04-04T19:47:50.370Z,101052.37
2023-04-04T19:52:52.280Z,101049.77
2023-04-04T19:57:53.746Z,101051.02
2023-04-04T20:02:58.097Z,101061.49
2023-04-04T20:08:02.776Z,101059.15
2023-04-04T20:13:06.774Z,101053.31
2023-04-04T20:18:08.450Z,101055.20
2023-04-04T20:23:10.011Z,101053.32
2023-04-04T20:28:28.599Z,101053.99
2023-04-04T20:33:32.937Z,101050.94
2023-04-04T20:38:36.882Z,101050.76
2023-04-04T20:43:38.558Z,101050.48
2023-04-04T20:48:40.840Z,101050.69
2023-04-04T20:53:42.409Z,101044.95
2023-04-04T20:58:43.941Z,101044.69
2023-04-04T21:03:47.156Z,101043.90
2023-04-04T21:08:51.043Z,101047.00
2023-04-04T21:13:52.946Z,101048.23
2023-04-04T21:18:58.843Z,101052.04
2023-04-04T21:24:01.341Z,101055.73
2023-04-04T21:29:08.053Z,101051.67
2023-04-04T21:34:11.483Z,101051.61
2023-04-04T21:39:29.535Z,101053.66
2023-04-04T21:44:31.872Z,101046.25
2023-04-04T21:49:33.446Z,101051.88
2023-04-04T21:54:34.923Z,101043.42
2023-04-04T21:59:36.500Z,101038.46
2023-04-04T22:04:38.195Z,101032.33
2023-04-04T22:09:43.014Z,101032.02
2023-04-04T22:14:45.826Z,101032.04
2023-04-04T22:19:58.858Z,101028.95
2023-04-04T22:25:07.211Z,101031.83
2023-04-04T22:30:09.399Z,101029.50
2023-04-04T22:35:12.453Z,101032.45
2023-04-04T22:40:14.347Z,101035.77
2023-04-04T22:45:16.930Z,101030.82
2023-04-04T22:50:23.370Z,101035.93
2023-04-04T22:55:26.603Z,101035.15
2023-04-04T23:00:28.348Z,101032.01
2023-04-04T23:05:29.871Z,101030.70
2023-04-04T23:10:31.568Z,101024.42
2023-04-04T23:15:35.749Z,101023.23
2023-04-04T23:20:37.504Z,101021.48
2023-04-04T23:25:39.085Z,101014.83
2023-04-04T23:30:40.882Z,101014.59
2023-04-04T23:35:43.022Z,101007.50
2023-04-04T23:40:44.618Z,100999.92
2023-04-04T23:45:46.189Z,100991.45
2023-04-04T23:50:50.036Z,100988.57
2023-04-04T23:55:51.905Z,100988.78
